createdAt,value
2022-10-28T00:01:15.107Z,0.15
2022-10-28T00:02:54.869Z,0.17
2022-10-28T00:06:14.416Z,0.17
2022-10-28T00:07:54.208Z,0.17
2022-10-28T00:09:33.933Z,0.19
2022-10-28T00:11:13.708Z,0.17
2022-10-28T00:12:53.485Z,0.2
2022-10-28T00:14:33.250Z,0.18
2022-10-28T00:16:13.018Z,0.2
2022-10-28T00:17:52.772Z,0.17
2022-10-28T00:19:32.554Z,0.17
2022-10-28T00:21:12.319Z,0.17
2022-10-28T00:22:52.090Z,0.16
2022-10-28T00:24:31.849Z,0.2
2022-10-28T00:26:11.612Z,0.15
2022-10-28T00:27:51.385Z,0.17
2022-10-28T00:29:31.163Z,0.17
2022-10-28T00:31:10.920Z,0.17
2022-10-28T00:32:50.691Z,0.17
2022-10-28T00:34:30.464Z,0.2
2022-10-28T00:36:10.217Z,0.18
2022-10-28T00:37:50.000Z,0.18
2022-10-28T00:39:29.754Z,0.16
2022-10-28T00:41:09.531Z,0.18
2022-10-28T00:42:49.370Z,0.19
2022-10-28T00:44:29.068Z,0.16
2022-10-28T00:46:08.828Z,0.19
2022-10-28T00:47:48.591Z,0.19
2022-10-28T00:49:28.355Z,0.16
2022-10-28T00:51:08.136Z,0.17
2022-10-28T00:52:47.885Z,0.17
2022-10-28T00:54:27.666Z,0.21
2022-10-28T00:56:07.434Z,0.2
2022-10-28T00:57:47.189Z,0.22
2022-10-28T00:59:26.974Z,0.21
2022-10-28T01:01:06.744Z,0.17
2022-10-28T01:02:46.505Z,0.21
2022-10-28T01:04:26.272Z,0.22
2022-10-28T01:06:06.027Z,0.23
2022-10-28T01:07:45.839Z,0.21
2022-10-28T01:09:25.572Z,0.19
2022-10-28T01:11:05.352Z,0.23
2022-10-28T01:12:45.106Z,0.2
2022-10-28T01:16:04.638Z,0.19
2022-10-28T01:17:44.420Z,0.23
2022-10-28T01:19:24.181Z,0.2
2022-10-28T01:21:03.953Z,0.21
2022-10-28T01:22:43.790Z,0.21
2022-10-28T01:24:23.480Z,0.19
2022-10-28T01:26:03.243Z,0.17
2022-10-28T01:27:43.012Z,0.21
2022-10-28T01:29:22.777Z,0.21
2022-10-28T01:31:02.547Z,0.18
2022-10-28T01:32:42.330Z,0.18
2022-10-28T01:34:22.090Z,0.18
2022-10-28T01:36:01.840Z,0.21
2022-10-28T01:37:41.616Z,0.2
2022-10-28T01:39:21.378Z,0.18
2022-10-28T01:41:01.154Z,0.16
2022-10-28T01:42:40.925Z,0.19
2022-10-28T01:44:20.690Z,0.19
2022-10-28T01:46:00.464Z,0.18
2022-10-28T01:47:40.220Z,0.19
2022-10-28T01:49:19.989Z,0.19
2022-10-28T01:50:59.766Z,0.18
2022-10-28T01:52:39.535Z,0.19
2022-10-28T01:54:19.289Z,0.2
2022-10-28T01:55:59.057Z,0.19
2022-10-28T01:57:38.831Z,0.16
2022-10-28T01:59:18.595Z,0.16
2022-10-28T02:00:58.352Z,0.18
2022-10-28T02:02:38.136Z,0.16
2022-10-28T02:04:17.901Z,0.17
2022-10-28T02:05:57.671Z,0.17
2022-10-28T02:07:37.430Z,0.18
2022-10-28T02:09:17.201Z,0.18
2022-10-28T02:10:56.957Z,0.16
2022-10-28T02:12:36.732Z,0.15
2022-10-28T02:14:16.501Z,0.18
2022-10-28T02:15:56.270Z,0.19
2022-10-28T02:17:36.050Z,0.16
2022-10-28T02:19:15.809Z,0.18
2022-10-28T02:20:55.579Z,0.18
2022-10-28T02:25:54.859Z,0.19
2022-10-28T02:27:34.641Z,0.17
2022-10-28T02:29:14.403Z,0.17
2022-10-28T02:30:54.185Z,0.17
2022-10-28T02:32:33.999Z,0.19
2022-10-28T02:34:13.710Z,0.17
2022-10-28T02:35:53.473Z,0.19
2022-10-28T02:37:33.242Z,0.18
2022-10-28T02:39:13.013Z,0.18
2022-10-28T02:40:52.794Z,0.16
2022-10-28T02:42:32.549Z,0.19
2022-10-28T02:44:12.322Z,0.19
2022-10-28T02:45:52.093Z,0.17
2022-10-28T02:47:31.859Z,0.18
2022-10-28T02:49:11.616Z,0.16
2022-10-28T02:50:51.386Z,0.16
2022-10-28T02:52:31.157Z,0.15
2022-10-28T02:54:10.906Z,0.16
2022-10-28T02:55:50.691Z,0.19
2022-10-28T02:57:30.442Z,0.15
2022-10-28T02:59:10.227Z,0.19
2022-10-28T03:00:50.000Z,0.17
2022-10-28T03:02:29.747Z,0.16
2022-10-28T03:04:09.529Z,0.16
2022-10-28T03:05:49.282Z,0.16
2022-10-28T03:07:29.060Z,0.19
2022-10-28T03:09:08.834Z,0.18
2022-10-28T03:10:48.583Z,0.17
2022-10-28T03:12:28.385Z,0.17
2022-10-28T03:14:08.139Z,0.17
2022-10-28T03:15:47.899Z,0.19
2022-10-28T03:17:27.651Z,0.19
2022-10-28T03:19:07.430Z,0.15
2022-10-28T03:20:47.182Z,0.16
2022-10-28T03:22:26.983Z,0.16
2022-10-28T03:24:06.736Z,0.19
2022-10-28T03:25:46.497Z,0.16
2022-10-28T03:27:26.277Z,0.16
2022-10-28T03:29:06.045Z,0.16
2022-10-28T03:30:45.805Z,0.16
2022-10-28T03:35:45.104Z,0.19
2022-10-28T03:37:24.879Z,0.17
2022-10-28T03:39:04.625Z,0.18
2022-10-28T03:40:44.410Z,0.16
2022-10-28T03:42:24.161Z,0.17
2022-10-28T03:44:03.930Z,0.15
2022-10-28T03:45:43.710Z,0.18
2022-10-28T03:47:23.481Z,0.16
2022-10-28T03:49:03.243Z,0.19
2022-10-28T03:50:43.008Z,0.16
2022-10-28T03:52:22.765Z,0.17
2022-10-28T03:54:02.551Z,0.18
2022-10-28T03:55:42.311Z,0.17
2022-10-28T03:57:22.057Z,0.2
2022-10-28T03:59:01.835Z,0.18
2022-10-28T04:00:41.603Z,0.16
2022-10-28T04:02:21.361Z,0.18
2022-10-28T04:04:01.111Z,0.19
2022-10-28T04:05:40.897Z,0.17
2022-10-28T04:07:20.649Z,0.17
2022-10-28T04:09:00.432Z,0.17
2022-10-28T04:10:40.167Z,0.19
2022-10-28T04:12:19.953Z,0.16
2022-10-28T04:13:59.740Z,0.19
2022-10-28T04:15:39.488Z,0.19
2022-10-28T04:17:19.240Z,0.19
2022-10-28T04:18:59.011Z,0.19
2022-10-28T04:20:38.767Z,0.16
2022-10-28T04:22:18.535Z,0.18
2022-10-28T04:23:58.301Z,0.19
2022-10-28T04:25:38.057Z,0.16
2022-10-28T04:27:17.818Z,0.19
2022-10-28T04:28:57.595Z,0.16
2022-10-28T04:30:37.371Z,0.17
2022-10-28T04:32:17.155Z,0.17
2022-10-28T04:33:56.893Z,0.17
2022-10-28T04:35:36.656Z,0.18
2022-10-28T04:37:16.405Z,0.17
2022-10-28T04:38:56.172Z,0.17
2022-10-28T04:42:15.753Z,0.16
2022-10-28T04:43:55.465Z,0.16
2022-10-28T04:45:35.240Z,0.16
2022-10-28T04:47:15.049Z,0.17
2022-10-28T04:48:54.772Z,0.18
2022-10-28T04:50:34.565Z,0.17
2022-10-28T04:52:14.300Z,0.21
2022-10-28T04:55:33.838Z,0.2
2022-10-28T04:57:13.588Z,0.22
2022-10-28T04:58:53.342Z,0.2
2022-10-28T05:00:33.117Z,0.26
2022-10-28T05:02:12.868Z,0.26
2022-10-28T05:05:32.414Z,0.33
2022-10-28T05:07:12.162Z,0.42
2022-10-28T05:08:51.928Z,0.49
2022-10-28T05:10:31.722Z,0.63
2022-10-28T05:12:11.457Z,0.76
2022-10-28T05:13:51.253Z,0.98
2022-10-28T05:15:31.001Z,1.32
2022-10-28T05:17:10.757Z,1.66
2022-10-28T05:18:50.516Z,2.1
2022-10-28T05:20:30.299Z,2.78
2022-10-28T05:22:10.051Z,3.61
2022-10-28T05:23:49.830Z,4.73
2022-10-28T05:25:29.589Z,6.18
2022-10-28T05:27:09.365Z,7.97
2022-10-28T05:28:49.118Z,10.25
2022-10-28T05:30:28.999Z,12.99
2022-10-28T05:32:08.651Z,16.46
2022-10-28T05:33:48.433Z,20.7
2022-10-28T05:35:28.187Z,25.35
2022-10-28T05:37:07.965Z,29.59
2022-10-28T05:38:47.730Z,26.79
2022-10-28T05:40:27.522Z,26.84
2022-10-28T05:43:47.035Z,26.87
2022-10-28T05:45:26.803Z,26.88
2022-10-28T05:47:06.569Z,26.89
2022-10-28T05:48:46.329Z,26.88
2022-10-28T05:50:26.099Z,26.9
2022-10-28T05:52:05.867Z,26.9
2022-10-28T05:53:45.630Z,26.9
2022-10-28T05:55:25.396Z,26.93
2022-10-28T05:57:05.165Z,26.94
2022-10-28T05:58:44.931Z,26.94
2022-10-28T06:00:24.705Z,26.89
2022-10-28T06:02:04.475Z,26.97
2022-10-28T06:03:44.234Z,26.97
2022-10-28T06:05:24.005Z,26.99
2022-10-28T06:07:03.872Z,27
2022-10-28T06:08:43.564Z,27.01
2022-10-28T06:10:23.333Z,27.03
2022-10-28T06:12:01.560Z,27.03
2022-10-28T06:13:41.308Z,27.04
2022-10-28T06:15:21.120Z,27.06
2022-10-28T06:17:00.914Z,27.06
2022-10-28T06:18:40.627Z,27.06
2022-10-28T06:20:20.444Z,27.08
2022-10-28T06:22:00.189Z,27.09
2022-10-28T06:23:39.980Z,27.12
2022-10-28T06:25:19.708Z,27.01
2022-10-28T06:26:59.464Z,27.14
2022-10-28T06:28:39.248Z,27.15
2022-10-28T06:30:19.008Z,27.17
2022-10-28T06:31:58.779Z,27.2
2022-10-28T06:33:38.613Z,27.2
2022-10-28T06:35:18.346Z,27.23
2022-10-28T06:36:58.099Z,27.24
2022-10-28T06:38:37.878Z,37.25
2022-10-28T06:40:17.708Z,27.29
2022-10-28T06:41:57.437Z,27.31
2022-10-28T06:43:37.184Z,27.31
2022-10-28T06:45:16.965Z,27.31
2022-10-28T06:46:58.263Z,27.33
2022-10-28T06:48:38.001Z,27.35
2022-10-28T06:50:17.795Z,27.36
2022-10-28T06:51:57.546Z,27.39
2022-10-28T06:53:37.329Z,27.41
2022-10-28T06:55:17.103Z,27.45
2022-10-28T06:56:56.888Z,27.48
2022-10-28T06:58:36.668Z,27.52
2022-10-28T07:00:16.422Z,27.54
2022-10-28T07:01:56.179Z,27.58
2022-10-28T07:03:36.032Z,27.59
2022-10-28T07:05:15.738Z,27.63
2022-10-28T07:06:55.547Z,27.68
2022-10-28T07:08:35.309Z,27.72
2022-10-28T07:10:15.047Z,27.76
2022-10-28T07:11:54.835Z,27.82
2022-10-28T07:13:34.610Z,27.88
2022-10-28T07:15:14.353Z,27.91
2022-10-28T07:16:54.157Z,27.88
2022-10-28T07:18:33.905Z,28.02
2022-10-28T07:20:13.681Z,28.06
2022-10-28T07:21:53.436Z,28.1
2022-10-28T07:23:33.209Z,28.12
2022-10-28T07:25:13.043Z,28.17
2022-10-28T07:26:52.764Z,28.21
2022-10-28T07:28:32.549Z,28.25
2022-10-28T07:31:52.144Z,28.33
2022-10-28T07:33:31.852Z,28.37
2022-10-28T07:35:11.612Z,28.4
2022-10-28T07:36:51.377Z,28.44
2022-10-28T07:38:31.146Z,72.93
2022-10-28T07:40:10.944Z,34.81
2022-10-28T07:41:50.708Z,28.62
2022-10-28T07:43:30.467Z,28.59
2022-10-28T07:45:10.233Z,28.7
2022-10-28T07:46:50.033Z,28.75
2022-10-28T07:48:29.779Z,28.79
2022-10-28T07:50:09.602Z,28.86
2022-10-28T07:51:49.326Z,28.9
2022-10-28T07:53:29.090Z,28.95
2022-10-28T07:55:08.874Z,29.01
2022-10-28T07:56:48.633Z,29.04
2022-10-28T07:58:28.393Z,29.08
2022-10-28T08:00:08.214Z,29.11
2022-10-28T08:01:47.952Z,29.09
2022-10-28T08:05:07.470Z,29.04
2022-10-28T08:06:47.228Z,29.01
2022-10-28T08:08:26.999Z,29
2022-10-28T08:10:06.776Z,29.07
2022-10-28T08:11:46.605Z,29.12
2022-10-28T08:13:26.305Z,29.21
2022-10-28T08:15:06.093Z,29.3
2022-10-28T08:16:45.848Z,29.38
2022-10-28T08:18:25.609Z,29.46
2022-10-28T08:20:05.415Z,29
2022-10-28T08:21:45.278Z,29.24
2022-10-28T08:23:25.018Z,29.63
2022-10-28T08:25:04.796Z,29.77
2022-10-28T08:26:44.563Z,30.04
2022-10-28T08:28:24.352Z,30.5
2022-10-28T08:30:04.104Z,30.6
2022-10-28T08:33:23.694Z,42.7
2022-10-28T08:35:03.416Z,84.09
2022-10-28T08:36:43.189Z,85.11
2022-10-28T08:38:22.958Z,84.32
2022-10-28T08:40:02.740Z,84.59
2022-10-28T08:41:42.505Z,84.01
2022-10-28T08:43:22.282Z,84.99
2022-10-28T08:45:02.043Z,84.66
2022-10-28T08:46:41.819Z,87.1
2022-10-28T08:48:21.597Z,85.68
2022-10-28T08:50:01.357Z,85.6
2022-10-28T08:51:41.152Z,86.08
2022-10-28T08:53:20.943Z,85.51
2022-10-28T08:55:00.690Z,83.48
2022-10-28T08:56:40.427Z,79.72
2022-10-28T08:58:20.198Z,79.9
2022-10-28T09:00:00.020Z,82.8
2022-10-28T09:01:39.759Z,85.94
2022-10-28T09:03:19.532Z,82.11
2022-10-28T09:04:59.296Z,81.29
2022-10-28T09:06:39.057Z,79.42
2022-10-28T09:08:18.842Z,81.96
2022-10-28T09:09:58.611Z,85.24
2022-10-28T09:11:38.389Z,86.92
2022-10-28T09:13:18.160Z,86.67
2022-10-28T09:14:57.915Z,86.37
2022-10-28T09:16:37.693Z,86.11
2022-10-28T09:18:17.472Z,85.26
2022-10-28T09:19:57.241Z,84.14
2022-10-28T09:21:37.057Z,78.81
2022-10-28T09:23:16.804Z,76.72
2022-10-28T09:24:56.533Z,76.26
2022-10-28T09:26:36.342Z,77.04
2022-10-28T09:28:16.129Z,85.39
2022-10-28T09:29:55.849Z,85.69
2022-10-28T09:31:35.620Z,85.19
2022-10-28T09:33:15.389Z,84.8
2022-10-28T09:34:55.177Z,84.37
2022-10-28T09:36:34.947Z,84.04
2022-10-28T09:38:14.692Z,83.93
2022-10-28T09:39:54.485Z,83.66
2022-10-28T09:41:34.241Z,83.6
2022-10-28T09:43:14.015Z,83.6
2022-10-28T09:44:53.784Z,83.61
2022-10-28T09:46:33.562Z,83.55
2022-10-28T09:48:13.323Z,83.39
2022-10-28T09:49:53.089Z,83.33
2022-10-28T09:51:32.869Z,83.35
2022-10-28T09:53:12.650Z,83.38
2022-10-28T09:54:52.419Z,83.42
2022-10-28T09:56:32.174Z,83.4
2022-10-28T09:58:11.932Z,83.35
2022-10-28T09:59:51.718Z,83.52
2022-10-28T10:01:31.484Z,83.17
2022-10-28T10:03:11.283Z,83.59
2022-10-28T10:04:51.025Z,83.69
2022-10-28T10:06:30.811Z,83.44
2022-10-28T10:09:50.354Z,83.17
2022-10-28T10:11:30.153Z,83.27
2022-10-28T10:13:09.949Z,83.29
2022-10-28T10:14:49.653Z,78.19
2022-10-28T10:16:29.431Z,83.44
2022-10-28T10:18:09.271Z,78.96
2022-10-28T10:19:48.956Z,79.82
2022-10-28T10:21:28.732Z,79.35
2022-10-28T10:23:08.515Z,84.75
2022-10-28T10:24:48.280Z,84.37
2022-10-28T10:26:28.037Z,84.14
2022-10-28T10:28:07.829Z,83.87
2022-10-28T10:29:47.585Z,83.73
2022-10-28T10:31:27.373Z,83.61
2022-10-28T10:33:07.126Z,83.69
2022-10-28T10:34:46.884Z,83.56
2022-10-28T10:36:26.671Z,83.58
2022-10-28T10:38:06.445Z,83.54
2022-10-28T10:39:46.208Z,83.56
2022-10-28T10:41:25.982Z,83.56
2022-10-28T10:43:05.753Z,83.7
2022-10-28T10:44:45.544Z,83.82
2022-10-28T10:46:25.301Z,83.75
2022-10-28T10:48:05.058Z,83.75
2022-10-28T10:49:44.834Z,83.68
2022-10-28T10:51:24.607Z,83.64
2022-10-28T10:53:04.370Z,83.55
2022-10-28T10:54:44.137Z,83.43
2022-10-28T10:56:23.918Z,83.47
2022-10-28T10:58:03.682Z,83.46
2022-10-28T10:59:43.459Z,83.41
2022-10-28T11:01:23.223Z,83.49
2022-10-28T11:03:02.987Z,83.58
2022-10-28T11:04:42.763Z,83.41
2022-10-28T11:06:22.537Z,83.38
2022-10-28T11:08:02.298Z,83.42
2022-10-28T11:09:42.082Z,83.23
2022-10-28T11:11:21.846Z,83.18
2022-10-28T11:13:01.624Z,83.33
2022-10-28T11:14:41.383Z,83.3
2022-10-28T11:16:21.167Z,83.29
2022-10-28T11:18:00.931Z,83.32
2022-10-28T11:19:40.687Z,83.21
2022-10-28T11:21:20.525Z,83.02
2022-10-28T11:23:00.228Z,83.16
2022-10-28T11:24:40.012Z,83.16
2022-10-28T11:26:19.796Z,83.11
2022-10-28T11:27:59.552Z,83.15
2022-10-28T11:29:39.321Z,83.17
2022-10-28T11:31:19.116Z,83.11
2022-10-28T11:32:58.869Z,83.71
2022-10-28T11:34:38.689Z,83.65
2022-10-28T11:36:18.403Z,83.63
2022-10-28T11:37:58.178Z,83.68
2022-10-28T11:39:37.927Z,83.75
2022-10-28T11:41:17.754Z,83.76
2022-10-28T11:42:57.491Z,83.75
2022-10-28T11:44:37.297Z,83.74
2022-10-28T11:46:17.044Z,83.73
2022-10-28T11:47:56.786Z,83.76
2022-10-28T11:49:36.565Z,83.58
2022-10-28T11:51:16.331Z,83.5
2022-10-28T11:52:56.101Z,83.35
2022-10-28T11:54:35.920Z,83.29
2022-10-28T11:56:15.668Z,83.24
2022-10-28T11:57:55.424Z,83.17
2022-10-28T11:59:35.171Z,83.16
2022-10-28T12:01:14.951Z,83.19
2022-10-28T12:02:54.710Z,83.31
2022-10-28T12:04:34.481Z,83.37
2022-10-28T12:06:14.267Z,83.19
2022-10-28T12:07:54.022Z,83.31
2022-10-28T12:09:33.807Z,82.62
2022-10-28T12:11:13.573Z,83.85
2022-10-28T12:12:53.339Z,80.06
2022-10-28T12:14:33.107Z,83.31
2022-10-28T12:16:12.902Z,82.28
2022-10-28T12:17:52.671Z,80.87
2022-10-28T12:19:32.417Z,81.58
2022-10-28T12:21:12.200Z,83.16
2022-10-28T12:22:51.968Z,82.71
2022-10-28T12:24:31.735Z,82.45
2022-10-28T12:26:11.542Z,84.62
2022-10-28T12:27:51.266Z,84.9
2022-10-28T12:29:31.049Z,84.31
2022-10-28T12:31:10.803Z,83.76
2022-10-28T12:32:50.582Z,83.36
2022-10-28T12:34:30.365Z,83.05
2022-10-28T12:36:10.124Z,82.85
2022-10-28T12:37:49.891Z,79.76
2022-10-28T12:39:29.662Z,78.53
2022-10-28T12:41:09.430Z,84.32
2022-10-28T12:44:28.967Z,82.38
2022-10-28T12:46:08.745Z,81.75
2022-10-28T12:47:48.579Z,84.26
2022-10-28T12:49:28.285Z,83.89
2022-10-28T12:51:08.102Z,83.71
2022-10-28T12:52:47.827Z,83.44
2022-10-28T12:54:27.585Z,83.56
2022-10-28T12:56:07.392Z,83.42
2022-10-28T12:57:47.155Z,83.56
2022-10-28T12:59:26.920Z,83.43
2022-10-28T13:01:06.686Z,83.34
2022-10-28T13:02:46.471Z,83.46
2022-10-28T13:04:26.244Z,83.41
2022-10-28T13:06:05.987Z,83.32
2022-10-28T13:07:45.771Z,83.09
2022-10-28T13:09:25.539Z,83.26
2022-10-28T13:11:05.293Z,83.49
2022-10-28T13:12:45.099Z,83.26
2022-10-28T13:14:24.845Z,82.98
2022-10-28T13:16:04.608Z,83.3
2022-10-28T13:17:44.419Z,83.44
2022-10-28T13:19:24.153Z,83.2
2022-10-28T13:21:03.914Z,83.04
2022-10-28T13:22:43.705Z,83.02
2022-10-28T13:24:23.462Z,83.02
2022-10-28T13:26:03.360Z,83.21
2022-10-28T13:27:42.998Z,83.17
2022-10-28T13:29:22.769Z,83.1
2022-10-28T13:31:02.537Z,83.02
2022-10-28T13:32:42.344Z,82.82
2022-10-28T13:34:22.126Z,82.87
2022-10-28T13:36:01.859Z,82.85
2022-10-28T13:37:41.629Z,82.89
2022-10-28T13:39:21.381Z,82.6
2022-10-28T13:41:01.196Z,82.6
2022-10-28T13:42:40.953Z,82.82
2022-10-28T13:44:20.698Z,82.62
2022-10-28T13:46:00.464Z,82.49
2022-10-28T13:47:40.226Z,82.76
2022-10-28T13:49:20.005Z,82.57
2022-10-28T13:50:59.775Z,82.48
2022-10-28T13:52:39.546Z,82.93
2022-10-28T13:54:19.326Z,82.87
2022-10-28T13:55:59.100Z,82.99
2022-10-28T13:57:38.866Z,82.72
2022-10-28T13:59:18.680Z,82.68
2022-10-28T14:00:58.403Z,82.45
2022-10-28T14:02:38.213Z,82.11
2022-10-28T14:04:17.950Z,82.28
2022-10-28T14:05:57.717Z,81.87
2022-10-28T14:07:37.489Z,81.33
2022-10-28T14:09:17.246Z,81.11
2022-10-28T14:10:57.016Z,81.22
2022-10-28T14:12:36.777Z,80.5
2022-10-28T14:14:16.588Z,80.14
2022-10-28T14:15:56.347Z,80.89
2022-10-28T14:17:36.099Z,81.57
2022-10-28T14:19:15.876Z,81.75
2022-10-28T14:20:55.669Z,82.25
2022-10-28T14:22:35.461Z,82.18
2022-10-28T14:24:15.243Z,82.16
2022-10-28T14:25:54.959Z,81.62
2022-10-28T14:27:34.720Z,81.98
2022-10-28T14:29:14.490Z,81.94
2022-10-28T14:30:54.264Z,82.47
2022-10-28T14:32:34.052Z,82.35
2022-10-28T14:34:13.797Z,82.21
2022-10-28T14:35:53.579Z,81.87
2022-10-28T14:37:33.329Z,81.31
2022-10-28T14:39:13.113Z,80.74
2022-10-28T14:40:52.873Z,80.53
2022-10-28T14:42:32.702Z,80.72
2022-10-28T14:44:12.426Z,80.69
2022-10-28T14:45:52.186Z,80.08
2022-10-28T14:47:31.950Z,80.3
2022-10-28T14:49:11.752Z,80.3
2022-10-28T14:50:51.494Z,80.26
2022-10-28T14:52:31.265Z,80.19
2022-10-28T14:54:11.030Z,80.12
2022-10-28T14:55:50.819Z,79.83
2022-10-28T14:57:30.582Z,79.51
2022-10-28T14:59:10.380Z,79
2022-10-28T15:00:50.121Z,78.58
2022-10-28T15:02:29.894Z,78.23
2022-10-28T15:04:09.659Z,77.9
2022-10-28T15:05:49.442Z,77.54
2022-10-28T15:07:29.206Z,77.12
2022-10-28T15:09:08.978Z,76.57
2022-10-28T15:10:48.759Z,76.06
2022-10-28T15:12:28.586Z,75.41
2022-10-28T15:14:08.300Z,74.73
2022-10-28T15:15:48.053Z,73.86
2022-10-28T15:17:27.827Z,72.85
2022-10-28T15:19:07.635Z,71.62
2022-10-28T15:20:47.366Z,69.9
2022-10-28T15:22:27.128Z,67.07
2022-10-28T15:24:06.897Z,60.23
2022-10-28T15:25:46.668Z,49.46
2022-10-28T15:27:26.443Z,37.66
2022-10-28T15:29:06.208Z,34.05
2022-10-28T15:30:46.034Z,33.74
2022-10-28T15:32:25.810Z,33.57
2022-10-28T15:34:05.523Z,33.45
2022-10-28T15:35:45.293Z,32.25
2022-10-28T15:37:25.048Z,28.14
2022-10-28T15:39:04.848Z,27.96
2022-10-28T15:40:44.595Z,27.93
2022-10-28T15:42:24.348Z,27.88
2022-10-28T15:44:04.136Z,27.87
2022-10-28T15:45:43.887Z,27.84
2022-10-28T15:47:23.702Z,27.79
2022-10-28T15:49:03.418Z,27.77
2022-10-28T15:50:43.217Z,27.75
2022-10-28T15:52:22.955Z,27.72
2022-10-28T15:54:02.729Z,27.69
2022-10-28T15:55:42.499Z,27.67
2022-10-28T15:57:22.261Z,35
2022-10-28T15:59:02.031Z,30.09
2022-10-28T16:00:41.784Z,27.52
2022-10-28T16:02:21.568Z,27.35
2022-10-28T16:04:01.333Z,22.5
2022-10-28T16:05:41.105Z,18.09
2022-10-28T16:07:20.911Z,14.35
2022-10-28T16:09:00.662Z,11.22
2022-10-28T16:10:40.405Z,8.71
2022-10-28T16:13:59.956Z,5.22
2022-10-28T16:15:39.725Z,4.01
2022-10-28T16:17:19.521Z,3.11
2022-10-28T16:18:59.235Z,2.35
2022-10-28T16:20:39.010Z,1.81
2022-10-28T16:22:18.869Z,1.43
2022-10-28T16:23:58.537Z,1.09
2022-10-28T16:25:38.299Z,0.83
2022-10-28T16:27:18.084Z,0.67
2022-10-28T16:28:57.849Z,0.51
2022-10-28T16:30:37.616Z,0.42
2022-10-28T16:32:17.381Z,0.38
2022-10-28T16:33:57.174Z,0.3
2022-10-28T16:35:36.923Z,0.26
2022-10-28T16:37:16.691Z,0.26
2022-10-28T16:38:56.451Z,0.23
2022-10-28T16:40:36.210Z,0.22
2022-10-28T16:42:16.063Z,0.21
2022-10-28T16:43:55.765Z,0.23
2022-10-28T16:45:35.527Z,0.19
2022-10-28T16:47:15.292Z,0.18
2022-10-28T16:48:55.062Z,0.18
2022-10-28T16:50:34.832Z,0.2
2022-10-28T16:52:14.587Z,0.2
2022-10-28T16:53:54.414Z,0.17
2022-10-28T16:55:34.132Z,0.18
2022-10-28T16:57:13.888Z,0.19
2022-10-28T16:58:53.658Z,0.17
2022-10-28T17:00:33.479Z,0.18
2022-10-28T17:03:52.980Z,0.19
2022-10-28T17:05:32.743Z,0.18
2022-10-28T17:07:12.493Z,0.2
2022-10-28T17:08:52.269Z,0.17
2022-10-28T17:10:32.033Z,0.19
2022-10-28T17:12:11.802Z,0.17
2022-10-28T17:13:51.564Z,0.17
2022-10-28T17:15:31.354Z,0.17
2022-10-28T17:17:11.125Z,0.19
2022-10-28T17:18:50.873Z,0.2
2022-10-28T17:20:30.644Z,0.18
2022-10-28T17:22:10.424Z,0.2
2022-10-28T17:23:50.179Z,0.18
2022-10-28T17:25:29.953Z,0.19
2022-10-28T17:27:09.702Z,0.16
2022-10-28T17:28:49.487Z,0.19
2022-10-28T17:30:29.253Z,0.19
2022-10-28T17:32:09.009Z,0.17
2022-10-28T17:33:48.820Z,0.18
2022-10-28T17:35:28.573Z,0.2
2022-10-28T17:37:08.310Z,0.19
2022-10-28T17:38:48.146Z,0.18
2022-10-28T17:40:27.861Z,0.19
2022-10-28T17:42:07.641Z,0.16
2022-10-28T17:43:47.459Z,0.18
2022-10-28T17:45:27.223Z,0.18
2022-10-28T17:47:06.925Z,0.17
2022-10-28T17:48:46.731Z,0.18
2022-10-28T17:50:26.442Z,0.18
2022-10-28T17:52:06.221Z,0.19
2022-10-28T17:53:46.030Z,0.17
2022-10-28T17:55:25.755Z,0.19
2022-10-28T17:57:05.523Z,0.17
2022-10-28T17:58:45.283Z,0.16
2022-10-28T18:00:25.060Z,0.17
2022-10-28T18:02:04.825Z,0.17
2022-10-28T18:03:44.595Z,0.19
2022-10-28T18:05:24.369Z,0.18
2022-10-28T18:07:04.139Z,0.19
2022-10-28T18:08:43.903Z,0.19
2022-10-28T18:10:23.656Z,0.17
2022-10-28T18:12:03.475Z,0.18
2022-10-28T18:13:43.202Z,0.17
2022-10-28T18:15:22.961Z,0.17
2022-10-28T18:17:02.732Z,0.18
2022-10-28T18:18:42.499Z,0.17
2022-10-28T18:20:22.270Z,0.19
2022-10-28T18:22:02.036Z,0.2
2022-10-28T18:23:41.795Z,0.17
2022-10-28T18:25:21.577Z,0.17
2022-10-28T18:27:01.327Z,0.17
2022-10-28T18:28:41.110Z,0.17
2022-10-28T18:30:20.879Z,0.17
2022-10-28T18:32:00.629Z,0.19
2022-10-28T18:33:40.405Z,0.17
2022-10-28T18:35:20.181Z,0.17
2022-10-28T18:36:59.963Z,0.17
2022-10-28T18:38:39.704Z,0.19
2022-10-28T18:40:19.468Z,0.18
2022-10-28T18:41:59.252Z,0.18
2022-10-28T18:43:39.004Z,0.17
2022-10-28T18:45:18.827Z,0.17
2022-10-28T18:46:58.608Z,0.19
2022-10-28T18:48:38.359Z,0.18
2022-10-28T18:50:18.127Z,0.17
2022-10-28T18:51:57.878Z,0.17
2022-10-28T18:53:37.618Z,0.19
2022-10-28T18:55:17.389Z,0.16
2022-10-28T18:56:57.247Z,0.19
2022-10-28T18:58:37.023Z,0.18
2022-10-28T19:00:16.678Z,0.19
2022-10-28T19:01:56.460Z,0.19
2022-10-28T19:03:36.235Z,0.18
2022-10-28T19:05:15.996Z,0.17
2022-10-28T19:06:55.771Z,0.17
2022-10-28T19:08:35.522Z,0.19
2022-10-28T19:10:15.305Z,0.18
2022-10-28T19:11:55.058Z,0.19
2022-10-28T19:13:34.822Z,0.2
2022-10-28T19:15:14.600Z,0.17
2022-10-28T19:16:54.381Z,0.19
2022-10-28T19:18:34.137Z,0.17
2022-10-28T19:20:13.901Z,0.19
2022-10-28T19:21:53.708Z,0.19
2022-10-28T19:23:33.430Z,0.19
2022-10-28T19:25:13.226Z,0.18
2022-10-28T19:26:52.965Z,0.17
2022-10-28T19:28:32.747Z,0.19
2022-10-28T19:30:12.526Z,0.19
2022-10-28T19:31:52.271Z,0.2
2022-10-28T19:33:32.031Z,0.19
2022-10-28T19:35:11.856Z,0.19
2022-10-28T19:36:51.590Z,0.17
2022-10-28T19:38:31.334Z,0.16
2022-10-28T19:40:11.148Z,0.17
2022-10-28T19:41:50.877Z,0.19
2022-10-28T19:43:30.655Z,0.19
2022-10-28T19:45:10.463Z,0.19
2022-10-28T19:46:50.179Z,0.19
2022-10-28T19:48:29.950Z,0.19
2022-10-28T19:50:09.708Z,0.18
2022-10-28T19:51:49.552Z,0.19
2022-10-28T19:53:29.245Z,0.15
2022-10-28T19:55:09.021Z,0.16
2022-10-28T19:56:48.815Z,0.18
2022-10-28T19:58:28.552Z,0.17
2022-10-28T20:00:08.372Z,0.18
2022-10-28T20:01:48.111Z,0.17
2022-10-28T20:03:27.852Z,0.16
2022-10-28T20:05:07.627Z,0.17
2022-10-28T20:06:47.415Z,0.19
2022-10-28T20:08:27.166Z,0.17
2022-10-28T20:10:06.927Z,0.17
2022-10-28T20:11:46.725Z,0.19
2022-10-28T20:13:26.488Z,0.19
2022-10-28T20:15:06.237Z,0.17
2022-10-28T20:16:45.998Z,0.17
2022-10-28T20:18:25.790Z,0.17
2022-10-28T20:20:05.541Z,0.16
2022-10-28T20:21:45.297Z,0.17
2022-10-28T20:23:25.066Z,0.19
2022-10-28T20:25:04.847Z,0.18
2022-10-28T20:26:44.615Z,0.19
2022-10-28T20:28:24.386Z,0.17
2022-10-28T20:30:04.135Z,0.18
2022-10-28T20:31:43.906Z,0.16
2022-10-28T20:33:23.668Z,0.17
2022-10-28T20:35:03.452Z,0.2
2022-10-28T20:36:43.206Z,0.18
2022-10-28T20:38:22.969Z,0.17
2022-10-28T20:40:02.806Z,0.17
2022-10-28T20:41:42.601Z,0.17
2022-10-28T20:43:22.341Z,0.16
2022-10-28T20:45:02.113Z,0.18
2022-10-28T20:46:41.803Z,0.17
2022-10-28T20:48:21.607Z,0.19
2022-10-28T20:50:01.361Z,0.17
2022-10-28T20:51:41.116Z,0.16
2022-10-28T20:53:20.883Z,0.18
2022-10-28T20:55:00.760Z,0.16
2022-10-28T20:56:40.421Z,0.17
2022-10-28T20:59:59.980Z,0.16
2022-10-28T21:01:39.803Z,0.17
2022-10-28T21:03:19.486Z,0.17
2022-10-28T21:04:59.322Z,0.18
2022-10-28T21:06:39.107Z,0.17
2022-10-28T21:08:18.772Z,0.2
2022-10-28T21:09:58.563Z,0.17
2022-10-28T21:11:38.378Z,0.18
2022-10-28T21:13:18.094Z,0.19
2022-10-28T21:14:57.879Z,0.19
2022-10-28T21:16:37.634Z,0.17
2022-10-28T21:18:17.432Z,0.19
2022-10-28T21:19:57.150Z,0.19
2022-10-28T21:21:36.924Z,0.19
2022-10-28T21:23:16.754Z,0.19
2022-10-28T21:24:56.459Z,0.18
2022-10-28T21:26:36.282Z,0.19
2022-10-28T21:28:16.000Z,0.17
2022-10-28T21:29:55.760Z,0.16
2022-10-28T21:31:35.524Z,0.18
2022-10-28T21:33:15.318Z,0.19
2022-10-28T21:34:55.060Z,0.17
2022-10-28T21:36:34.823Z,0.2
2022-10-28T21:38:14.598Z,0.18
2022-10-28T21:39:54.395Z,0.17
2022-10-28T21:43:13.908Z,0.19
2022-10-28T21:44:53.668Z,0.19
2022-10-28T21:46:33.447Z,0.19
2022-10-28T21:48:13.236Z,0.16
2022-10-28T21:49:52.980Z,0.18
2022-10-28T21:51:32.752Z,0.19
2022-10-28T21:53:12.506Z,0.16
2022-10-28T21:54:52.297Z,0.18
2022-10-28T21:56:32.045Z,0.17
2022-10-28T21:58:11.810Z,0.18
2022-10-28T21:59:51.586Z,0.17
2022-10-28T22:01:31.341Z,0.17
2022-10-28T22:03:11.109Z,0.17
2022-10-28T22:04:50.883Z,0.19
2022-10-28T22:06:30.661Z,0.2
2022-10-28T22:08:10.464Z,0.19
2022-10-28T22:09:50.250Z,0.2
2022-10-28T22:11:29.958Z,0.18
2022-10-28T22:13:09.721Z,0.17
2022-10-28T22:14:49.503Z,0.21
2022-10-28T22:16:29.265Z,0.17
2022-10-28T22:18:09.014Z,0.18
2022-10-28T22:19:48.833Z,0.21
2022-10-28T22:21:28.587Z,0.2
2022-10-28T22:23:08.321Z,0.2